Beef Island, Islas Vírgenes Británicas

11:55 AM AST en Agosto 01, 2014 (GMT -0400)
Beef I International (TUPJ) Alt 13 ft | 18.44 °N, 64.54 °W | Change Station

Current weather conditions updated 55 minutes ago

Scattered Clouds
Nubes dispersas
88 ° F
Sensación térmica 98 ° F
N
14
Viento Variable Viento desde ESE

Hoy se prevé una temperatura muy similar a la de ayer. Cielo parcialmente cubierto..

Hoy
Alta -- | Baja -- ° F
--% Posibilidad de precipitaciones
Ayer
Alta -- | Baja -- ° F
Precip. -- pul
5:55 AM 6:52 PM
Creciente, 27% visible
Presión 30.01 pul
Visibilidad 6.2 Millas
Nubes Nubes dispersas 2000 ft
Índice de calor 98 ° F
Punto de rocío 75 ° F
Humedad 66%
Precipitaciones 0.00 pul
Espesor de la nieve No disponible.
UV 9 de una escala de 12
Polen No disponible.
Calidad del aire No disponible.
Flu Activity No disponible.
METAR TUPJ 011500Z 11012KT 9999 SCT020 31/24 Q1016

More Conditions Fewer Conditions

Presión 30.01 pul
Visibilidad 6.2 Millas
Nubes Nubes dispersas 2000 ft
Índice de calor 98 ° F
Punto de rocío 75 ° F
Humedad 66%
Precipitaciones 0.00 pul
Espesor de la nieve No disponible.
UV 9 de una escala de 12
Polen No disponible.
Calidad del aire No disponible.
Flu Activity No disponible.
METAR TUPJ 011500Z 11012KT 9999 SCT020 31/24 Q1016

More Conditions Fewer Conditions

10-Day Weather Forecast

Almanac

Astronomía

Aug. 01, 2014 Salida Puesta
Hora real 5:55 AM AST 6:52 PM AST
Crepúsculo civil 5:32 AM AST 7:15 PM AST
Crepúsculo náutico 5:05 AM AST 7:43 PM AST
Crepúsculo astronómico 4:37 AM AST 8:11 PM AST
Luna 10:25 AM AST 10:29 PM AST
Horas de luz 13h 43m
Horas de luz
12h 56m
Tomorrow will be 0m 47s shorter.
Creciente, 27% of the Moon is Illuminated
Hoy
Creciente
Ago 3
Cuarto creciente
Ago 10
Luna llena
Ago 17
Cuarto menguante
Ago 25
Nueva

Extremos de hoy

Máximos del país Bajas del país

Community

WunderPhotos

Upload Photos

1,739,618 ¡fotos cargadas!

Nearby

Calidad del aire

Not available.

Grosos de nieve

Not available.

Actividad de terremotos

Ciudad Distance Mag. Tiempo y dato
No hay informes recientes de la actividad sísmica.
Magnitud mínima muestra es 2,5.

Temperaturas de aguas costeras

Lugar Temperatura
Sin partes meteorológicos de las estaciones

Estaciones meteorológicas cercanas

Ubicación de la estación Temp. Índice de calor Punto de rocío Humedad Viento Precip. Alt Actualizado Tipo
Sopers Hole, Tortola 85.5 ° F 94 ° F 74 ° F 70% NE  a  9.6 mph 0.00 pul / hr 36 ft 11:55 AM AST Rapid Fire
Great Cruz Bay, St John, St John 85.9 ° F 95 ° F 75 ° F 71% ESE  a  12.0 mph 0.00 pul / hr 59 ft 11:54 AM AST Normal

Show More Stations Show Fewer Stations